createdAt,value
2019-05-16T00:00:51.412Z,49.13
2019-05-16T00:01:51.388Z,49.56
2019-05-16T00:02:51.429Z,51.34
2019-05-16T00:03:51.367Z,52.46
2019-05-16T00:04:51.358Z,49.85
2019-05-16T00:05:54.387Z,50.46
2019-05-16T00:06:51.335Z,49.65
2019-05-16T00:07:51.326Z,49.85
2019-05-16T00:08:51.411Z,50.06
2019-05-16T00:09:51.305Z,50.96
2019-05-16T00:10:51.288Z,52.46
2019-05-16T00:11:51.281Z,49.45
2019-05-16T00:12:51.274Z,49.56
2019-05-16T00:13:51.258Z,49.03
2019-05-16T00:14:51.401Z,49.03
2019-05-16T00:15:51.238Z,49.03
2019-05-16T00:16:51.233Z,49.93
2019-05-16T00:17:51.213Z,51.26
2019-05-16T00:18:51.215Z,52.21
2019-05-16T00:19:51.422Z,52.64
2019-05-16T00:20:51.283Z,53.29
2019-05-16T00:21:51.170Z,54.60
2019-05-16T00:22:51.160Z,53.92
2019-05-16T00:23:51.149Z,53.90
2019-05-16T00:24:51.145Z,53.99
2019-05-16T00:25:51.128Z,54.80
2019-05-16T00:26:51.222Z,55.13
2019-05-16T00:27:51.109Z,56.16
2019-05-16T00:28:51.095Z,55.35
2019-05-16T00:29:51.086Z,57.07
2019-05-16T00:30:51.072Z,55.88
2019-05-16T00:31:51.062Z,56.49
2019-05-16T00:32:51.209Z,56.69
2019-05-16T00:33:51.041Z,56.39
2019-05-16T00:34:51.030Z,54.95
2019-05-16T00:36:02.243Z,54.07
2019-05-16T00:37:18.004Z,53.64
2019-05-16T00:38:15.862Z,53.85
2019-05-16T00:39:15.806Z,53.22
2019-05-16T00:40:15.792Z,52.11
2019-05-16T00:41:17.842Z,52.51
2019-05-16T00:42:17.958Z,53.09
2019-05-16T00:43:15.760Z,52.19
2019-05-16T00:44:15.846Z,50.96
2019-05-16T00:45:18.327Z,51.53
2019-05-16T00:46:15.726Z,51.53
2019-05-16T00:47:17.706Z,51.16
2019-05-16T00:48:15.704Z,52.16
2019-05-16T00:49:15.699Z,53.19
2019-05-16T00:50:18.052Z,53.32
2019-05-16T00:51:15.673Z,53.54
2019-05-16T00:52:15.663Z,54.85
2019-05-16T00:53:15.648Z,54.57
2019-05-16T00:54:15.642Z,54.77
2019-05-16T00:55:17.779Z,55.07
2019-05-16T00:56:15.718Z,54.65
2019-05-16T00:57:15.606Z,54.75
2019-05-16T00:58:18.511Z,53.82
2019-05-16T00:59:15.586Z,53.16
2019-05-16T01:00:18.029Z,53.74
2019-05-16T01:01:15.569Z,52.29
2019-05-16T01:02:15.601Z,50.74
2019-05-16T01:03:15.541Z,50.01
2019-05-16T01:04:15.529Z,49.79
2019-05-16T01:05:15.518Z,49.67
2019-05-16T01:06:19.923Z,49.46
2019-05-16T01:07:40.711Z,49.19
2019-05-16T01:08:40.697Z,49.39
2019-05-16T01:09:40.691Z,48.19
2019-05-16T01:10:40.679Z,49.71
2019-05-16T01:11:40.670Z,50.41
2019-05-16T01:12:40.708Z,50.81
2019-05-16T01:13:40.648Z,50.93
2019-05-16T01:14:40.639Z,51.44
2019-05-16T01:15:40.626Z,50.46
2019-05-16T01:16:40.620Z,51.39
2019-05-16T01:17:40.605Z,51.09
2019-05-16T01:18:40.651Z,50.98
2019-05-16T01:19:40.586Z,51.31
2019-05-16T01:20:40.574Z,51.11
2019-05-16T01:21:40.565Z,52.14
2019-05-16T01:22:40.554Z,52.86
2019-05-16T01:23:40.543Z,53.97
2019-05-16T01:24:41.499Z,53.36
2019-05-16T01:25:40.521Z,53.67
2019-05-16T01:26:40.509Z,52.26
2019-05-16T01:27:40.498Z,52.06
2019-05-16T01:28:40.489Z,52.36
2019-05-16T01:29:40.476Z,52.26
2019-05-16T01:30:40.518Z,52.36
2019-05-16T01:31:40.457Z,51.96
2019-05-16T01:32:40.448Z,52.36
2019-05-16T01:33:40.434Z,51.36
2019-05-16T01:34:40.422Z,50.36
2019-05-16T01:35:41.861Z,52.34
2019-05-16T01:36:40.875Z,53.94
2019-05-16T01:37:40.391Z,52.74
2019-05-16T01:38:40.382Z,53.27
2019-05-16T01:39:40.371Z,54.17
2019-05-16T01:40:40.367Z,51.94
2019-05-16T01:41:40.351Z,54.04
2019-05-16T01:42:40.589Z,52.34
2019-05-16T01:43:40.329Z,53.14
2019-05-16T01:44:40.319Z,53.74
2019-05-16T01:45:40.307Z,52.34
2019-05-16T01:46:40.296Z,52.04
2019-05-16T01:47:40.285Z,51.53
2019-05-16T01:48:40.324Z,52.56
2019-05-16T01:49:40.266Z,53.67
2019-05-16T01:50:40.251Z,53.67
2019-05-16T01:51:40.243Z,53.79
2019-05-16T01:52:40.237Z,53.57
2019-05-16T01:53:40.221Z,52.77
2019-05-16T01:54:40.260Z,53.14
2019-05-16T01:55:40.204Z,53.94
2019-05-16T01:56:40.190Z,52.14
2019-05-16T01:57:40.178Z,51.76
2019-05-16T01:58:40.168Z,51.86
2019-05-16T01:59:40.158Z,51.28
2019-05-16T02:00:49.190Z,49.98
2019-05-16T02:01:41.235Z,48.48
2019-05-16T02:02:40.126Z,47.57
2019-05-16T02:03:40.112Z,49.57
2019-05-16T02:04:40.107Z,49.30
2019-05-16T02:05:40.094Z,48.98
2019-05-16T02:06:50.856Z,49.05
2019-05-16T02:08:04.888Z,49.25
2019-05-16T02:09:04.875Z,48.22
2019-05-16T02:10:04.864Z,52.16
2019-05-16T02:11:04.852Z,53.09
2019-05-16T02:12:04.892Z,53.11
2019-05-16T02:13:04.831Z,54.04
2019-05-16T02:14:04.817Z,56.58
2019-05-16T02:15:04.808Z,54.50
2019-05-16T02:16:04.795Z,57.31
2019-05-16T02:17:04.787Z,57.75
2019-05-16T02:18:04.926Z,55.05
2019-05-16T02:19:04.763Z,55.53
2019-05-16T02:20:04.757Z,55.53
2019-05-16T02:21:04.745Z,57.44
2019-05-16T02:22:04.733Z,54.35
2019-05-16T02:23:04.722Z,52.84
2019-05-16T02:24:04.818Z,54.65
2019-05-16T02:25:04.702Z,53.49
2019-05-16T02:26:04.689Z,52.89
2019-05-16T02:27:04.679Z,53.61
2019-05-16T02:28:04.669Z,53.44
2019-05-16T02:29:04.713Z,53.07
2019-05-16T02:30:04.648Z,52.36
2019-05-16T02:31:04.633Z,51.76
2019-05-16T02:32:04.624Z,50.25
2019-05-16T02:33:04.613Z,51.66
2019-05-16T02:34:05.109Z,51.76
2019-05-16T02:35:04.591Z,51.15
2019-05-16T02:36:04.583Z,51.15
2019-05-16T02:37:24.326Z,51.63
2019-05-16T02:38:05.654Z,51.51
2019-05-16T02:39:04.550Z,51.69
2019-05-16T02:40:04.608Z,52.19
2019-05-16T02:41:04.525Z,50.96
2019-05-16T02:42:04.513Z,49.53
2019-05-16T02:43:04.504Z,49.03
2019-05-16T02:44:04.496Z,49.91
2019-05-16T02:45:04.589Z,49.53
2019-05-16T02:46:04.478Z,50.01
2019-05-16T02:47:04.457Z,46.50
2019-05-16T02:48:04.449Z,47.80
2019-05-16T02:49:04.439Z,47.70
2019-05-16T02:50:04.432Z,47.18
2019-05-16T02:51:04.522Z,47.66
2019-05-16T02:52:04.419Z,46.55
2019-05-16T02:53:04.393Z,46.13
2019-05-16T02:54:04.388Z,46.33
2019-05-16T02:55:04.375Z,46.33
2019-05-16T02:56:04.516Z,46.74
2019-05-16T02:57:04.352Z,46.33
2019-05-16T02:58:04.341Z,47.86
2019-05-16T02:59:04.334Z,48.48
2019-05-16T03:00:04.318Z,48.58
2019-05-16T03:01:04.307Z,49.31
2019-05-16T03:02:04.343Z,50.10
2019-05-16T03:03:04.283Z,49.89
2019-05-16T03:04:04.275Z,49.58
2019-05-16T03:05:04.266Z,47.78
2019-05-16T03:06:04.260Z,48.16
2019-05-16T03:07:04.291Z,47.93
2019-05-16T03:08:04.238Z,47.43
2019-05-16T03:09:05.353Z,47.76
2019-05-16T03:10:04.220Z,46.71
2019-05-16T03:11:04.200Z,46.39
2019-05-16T03:12:04.338Z,45.75
2019-05-16T03:13:04.177Z,44.53
2019-05-16T03:14:04.166Z,44.11
2019-05-16T03:15:04.154Z,43.90
2019-05-16T03:16:04.144Z,45.62
2019-05-16T03:17:04.142Z,46.37
2019-05-16T03:18:04.754Z,47.19
2019-05-16T03:19:04.115Z,47.21
2019-05-16T03:20:04.098Z,46.17
2019-05-16T03:21:04.090Z,44.08
2019-05-16T03:22:04.117Z,41.73
2019-05-16T03:23:04.071Z,41.59
2019-05-16T03:24:04.161Z,41.45
2019-05-16T03:25:04.052Z,40.40
2019-05-16T03:26:04.041Z,39.58
2019-05-16T03:27:04.042Z,40.18
2019-05-16T03:28:04.016Z,39.90
2019-05-16T03:29:04.005Z,40.48
2019-05-16T03:30:04.249Z,38.83
2019-05-16T03:31:05.627Z,37.39
2019-05-16T03:32:04.023Z,35.60
2019-05-16T03:33:05.602Z,35.98
2019-05-16T03:34:07.587Z,35.54
2019-05-16T03:35:05.576Z,34.93
2019-05-16T03:36:05.175Z,35.23
2019-05-16T03:37:04.922Z,35.66
2019-05-16T03:38:05.727Z,34.47
2019-05-16T03:39:03.899Z,35.28
2019-05-16T03:40:03.889Z,35.35
2019-05-16T03:41:03.881Z,34.92
2019-05-16T03:42:03.918Z,34.88
2019-05-16T03:43:03.856Z,35.05
2019-05-16T03:44:03.856Z,34.44
2019-05-16T03:45:03.836Z,34.21
2019-05-16T03:46:03.827Z,33.27
2019-05-16T03:47:03.815Z,33.38
2019-05-16T03:48:04.068Z,33.60
2019-05-16T03:49:03.798Z,33.81
2019-05-16T03:50:03.782Z,34.34
2019-05-16T03:51:03.777Z,35.43
2019-05-16T03:52:03.764Z,34.36
2019-05-16T03:53:03.753Z,34.46
2019-05-16T03:54:03.789Z,35.18
2019-05-16T03:55:03.738Z,35.58
2019-05-16T03:56:03.723Z,35.20
2019-05-16T03:57:03.714Z,36.10
2019-05-16T03:58:03.727Z,35.61
2019-05-16T03:59:03.691Z,35.30
2019-05-16T04:00:03.736Z,35.49
2019-05-16T04:01:03.680Z,35.81
2019-05-16T04:02:03.663Z,34.69
2019-05-16T04:03:03.649Z,34.66
2019-05-16T04:04:03.639Z,33.74
2019-05-16T04:05:03.629Z,32.80
2019-05-16T04:06:03.671Z,32.09
2019-05-16T04:07:03.609Z,33.52
2019-05-16T04:08:14.819Z,34.16
2019-05-16T04:09:31.333Z,34.38
2019-05-16T04:10:30.930Z,33.86
2019-05-16T04:11:31.805Z,33.63
2019-05-16T04:12:30.884Z,32.72
2019-05-16T04:13:31.078Z,31.01
2019-05-16T04:14:30.902Z,31.59
2019-05-16T04:15:31.089Z,31.56
2019-05-16T04:16:31.224Z,30.47
2019-05-16T04:17:31.419Z,30.56
2019-05-16T04:18:31.531Z,29.47
2019-05-16T04:19:31.188Z,29.54
2019-05-16T04:20:30.475Z,28.74
2019-05-16T04:21:31.941Z,29.44
2019-05-16T04:22:31.534Z,30.52
2019-05-16T04:23:30.994Z,31.53
2019-05-16T04:24:31.421Z,31.83
2019-05-16T04:25:30.935Z,32.59
2019-05-16T04:26:30.926Z,30.41
2019-05-16T04:27:30.920Z,31.77
2019-05-16T04:28:31.353Z,30.96
2019-05-16T04:29:31.272Z,31.54
2019-05-16T04:30:31.298Z,32.26
2019-05-16T04:31:30.824Z,30.87
2019-05-16T04:32:31.270Z,31.97
2019-05-16T04:33:30.882Z,32.44
2019-05-16T04:34:31.168Z,33.44
2019-05-16T04:35:28.126Z,33.65
2019-05-16T04:36:28.120Z,33.38
2019-05-16T04:37:31.100Z,32.56
2019-05-16T04:38:39.794Z,33.23
2019-05-16T04:39:31.823Z,32.44
2019-05-16T04:40:30.941Z,31.95
2019-05-16T04:41:31.131Z,31.35
2019-05-16T04:42:30.773Z,31.42
2019-05-16T04:43:31.342Z,31.20
2019-05-16T04:44:31.057Z,30.39
2019-05-16T04:45:28.028Z,30.00
2019-05-16T04:46:31.097Z,29.30
2019-05-16T04:47:30.954Z,30.38
2019-05-16T04:48:30.731Z,29.29
2019-05-16T04:49:27.987Z,28.38
2019-05-16T04:50:30.990Z,28.57
2019-05-16T04:51:30.579Z,28.25
2019-05-16T04:52:30.629Z,28.44
2019-05-16T04:53:31.291Z,28.63
2019-05-16T04:54:30.780Z,28.93
2019-05-16T04:55:31.380Z,28.54
2019-05-16T04:56:30.677Z,27.44
2019-05-16T04:57:31.018Z,26.36
2019-05-16T04:58:31.399Z,26.44
2019-05-16T04:59:30.935Z,26.52
2019-05-16T05:00:31.625Z,25.75
2019-05-16T05:01:30.687Z,24.58
2019-05-16T05:02:30.660Z,25.65
2019-05-16T05:03:31.241Z,25.95
2019-05-16T05:04:30.508Z,25.46
2019-05-16T05:05:27.830Z,25.66
2019-05-16T05:06:27.820Z,25.57
2019-05-16T05:07:30.983Z,26.85
2019-05-16T05:08:30.511Z,26.80
2019-05-16T05:09:27.806Z,27.36
2019-05-16T05:10:31.016Z,29.28
2019-05-16T05:11:30.481Z,29.80
2019-05-16T05:12:27.760Z,29.71
2019-05-16T05:13:30.485Z,28.76
2019-05-16T05:14:30.576Z,29.25
2019-05-16T05:15:30.472Z,29.04
2019-05-16T05:16:30.480Z,28.93
2019-05-16T05:17:30.430Z,28.66
2019-05-16T05:18:30.047Z,29.56
2019-05-16T05:19:30.482Z,28.98
2019-05-16T05:20:30.205Z,28.70
2019-05-16T05:21:27.668Z,29.01
2019-05-16T05:22:27.710Z,30.70
2019-05-16T05:23:29.957Z,30.68
2019-05-16T05:24:27.635Z,30.56
2019-05-16T05:25:27.631Z,29.56
2019-05-16T05:26:27.613Z,29.46
2019-05-16T05:27:27.605Z,29.44
2019-05-16T05:28:29.782Z,28.74
2019-05-16T05:29:27.586Z,28.74
2019-05-16T05:30:27.576Z,29.67
2019-05-16T05:31:27.592Z,29.95
2019-05-16T05:32:27.555Z,30.57
2019-05-16T05:33:29.971Z,30.47
2019-05-16T05:34:27.582Z,30.67
2019-05-16T05:35:27.528Z,30.68
2019-05-16T05:36:29.881Z,31.39
2019-05-16T05:37:29.606Z,31.08
2019-05-16T05:38:27.495Z,30.98
2019-05-16T05:39:27.478Z,28.83
2019-05-16T05:40:29.549Z,30.43
2019-05-16T05:41:27.460Z,30.16
2019-05-16T05:42:27.448Z,30.59
2019-05-16T05:43:27.441Z,30.90
2019-05-16T05:44:27.428Z,31.59
2019-05-16T05:45:27.419Z,31.12
2019-05-16T05:46:27.562Z,31.61
2019-05-16T05:47:27.397Z,30.92
2019-05-16T05:48:27.389Z,31.71
2019-05-16T05:49:30.025Z,31.32
2019-05-16T05:50:27.369Z,31.92
2019-05-16T05:52:30.053Z,32.00
2019-05-16T05:53:29.835Z,31.51
2019-05-16T05:54:27.326Z,32.00
2019-05-16T05:55:27.318Z,31.58
2019-05-16T05:56:27.306Z,31.00
2019-05-16T05:57:29.850Z,31.01
2019-05-16T05:58:30.508Z,31.61
2019-05-16T05:59:27.272Z,31.12
2019-05-16T06:00:30.121Z,30.62
2019-05-16T06:01:27.258Z,29.74
2019-05-16T06:02:27.240Z,30.93
2019-05-16T06:03:27.232Z,31.74
2019-05-16T06:04:27.374Z,31.84
2019-05-16T06:05:27.217Z,31.34
2019-05-16T06:06:27.200Z,32.34
2019-05-16T06:07:27.200Z,34.21
2019-05-16T06:08:27.184Z,32.02
2019-05-16T06:09:30.082Z,31.43
2019-05-16T06:10:27.207Z,31.13
2019-05-16T06:11:27.150Z,32.22
2019-05-16T06:12:27.964Z,32.31
2019-05-16T06:13:27.134Z,31.43
2019-05-16T06:14:27.116Z,31.92
2019-05-16T06:15:27.106Z,32.02
2019-05-16T06:16:27.145Z,31.71
2019-05-16T06:17:27.097Z,31.54
2019-05-16T06:18:27.076Z,32.23
2019-05-16T06:19:27.070Z,31.75
2019-05-16T06:20:27.058Z,31.85
2019-05-16T06:21:27.057Z,31.85
2019-05-16T06:22:29.657Z,31.85
2019-05-16T06:23:27.027Z,31.95
2019-05-16T06:24:27.018Z,31.95
2019-05-16T06:25:27.004Z,31.87
2019-05-16T06:26:26.995Z,31.47
2019-05-16T06:27:26.981Z,32.95
2019-05-16T06:28:27.075Z,32.15
2019-05-16T06:29:26.965Z,33.63
2019-05-16T06:30:26.957Z,33.23
2019-05-16T06:31:26.945Z,33.73
2019-05-16T06:32:26.929Z,33.16
2019-05-16T06:33:26.925Z,31.98
2019-05-16T06:34:27.013Z,31.39
2019-05-16T06:35:26.902Z,31.29
2019-05-16T06:36:26.889Z,31.19
2019-05-16T06:37:26.877Z,33.17
2019-05-16T06:38:26.869Z,31.39
2019-05-16T06:39:39.210Z,31.39
2019-05-16T06:40:52.839Z,33.35
2019-05-16T06:41:51.901Z,32.66
2019-05-16T06:42:51.890Z,31.97
2019-05-16T06:43:51.879Z,30.60
2019-05-16T06:44:51.873Z,30.00
2019-05-16T06:45:51.960Z,31.98
2019-05-16T06:47:10.072Z,31.97
2019-05-16T06:47:52.935Z,30.78
2019-05-16T06:48:51.828Z,30.79
2019-05-16T06:49:51.817Z,29.51
2019-05-16T06:50:52.056Z,30.28
2019-05-16T06:51:51.904Z,31.67
2019-05-16T06:52:51.793Z,31.97
2019-05-16T06:53:51.773Z,32.06
2019-05-16T06:54:53.805Z,31.46
2019-05-16T06:55:51.758Z,31.35
2019-05-16T06:56:51.747Z,32.06
2019-05-16T06:57:51.887Z,32.17
2019-05-16T06:58:52.266Z,32.26
2019-05-16T06:59:51.711Z,33.75
2019-05-16T07:00:52.690Z,32.46
2019-05-16T07:01:51.695Z,32.95
2019-05-16T07:02:51.683Z,32.87
2019-05-16T07:03:51.720Z,31.88
2019-05-16T07:04:51.664Z,31.98
2019-05-16T07:05:51.662Z,32.26
2019-05-16T07:06:58.924Z,31.09
2019-05-16T07:07:52.725Z,31.98
2019-05-16T07:08:51.622Z,31.78
2019-05-16T07:10:00.174Z,32.08
2019-05-16T07:10:52.701Z,31.77
2019-05-16T07:11:51.596Z,32.17
2019-05-16T07:12:51.580Z,34.05
2019-05-16T07:13:52.096Z,32.76
2019-05-16T07:14:51.566Z,33.55
2019-05-16T07:15:51.700Z,32.55
2019-05-16T07:16:51.545Z,32.25
2019-05-16T07:17:51.532Z,33.44
2019-05-16T07:18:51.527Z,32.34
2019-05-16T07:19:51.502Z,31.85
2019-05-16T07:20:51.607Z,30.76
2019-05-16T07:21:51.586Z,31.95
2019-05-16T07:22:51.474Z,32.63
2019-05-16T07:23:51.465Z,34.88
2019-05-16T07:24:51.459Z,34.79
2019-05-16T07:25:51.445Z,34.69
2019-05-16T07:26:51.452Z,34.47
2019-05-16T07:27:51.521Z,35.16
2019-05-16T07:28:51.807Z,34.16
2019-05-16T07:29:51.401Z,34.83
2019-05-16T07:30:51.392Z,34.34
2019-05-16T07:31:52.458Z,32.27
2019-05-16T07:32:51.370Z,33.45
2019-05-16T07:33:51.521Z,31.48
2019-05-16T07:34:51.350Z,32.56
2019-05-16T07:35:51.673Z,31.51
2019-05-16T07:36:51.329Z,31.71
2019-05-16T07:37:51.319Z,32.70
2019-05-16T07:38:51.307Z,32.20
2019-05-16T07:39:51.405Z,32.48
2019-05-16T07:40:51.579Z,31.69
2019-05-16T07:41:51.283Z,31.68
2019-05-16T07:42:51.271Z,31.48
2019-05-16T07:43:51.264Z,28.91
2019-05-16T07:44:51.258Z,30.10
2019-05-16T07:45:51.756Z,30.79
2019-05-16T07:46:51.734Z,30.59
2019-05-16T07:47:51.259Z,29.79
2019-05-16T07:48:52.042Z,29.39
2019-05-16T07:49:51.201Z,29.38
2019-05-16T07:50:51.187Z,28.19
2019-05-16T07:51:51.429Z,29.29
2019-05-16T07:52:51.379Z,29.29
2019-05-16T07:53:51.155Z,28.82
2019-05-16T07:54:51.147Z,28.91
2019-05-16T07:55:51.301Z,29.69
2019-05-16T07:56:58.714Z,28.02
2019-05-16T07:57:53.169Z,29.51
2019-05-16T07:58:51.107Z,29.10
2019-05-16T07:59:51.103Z,29.57
2019-05-16T08:01:02.114Z,29.18
2019-05-16T08:02:15.895Z,28.39
2019-05-16T08:03:15.929Z,27.70
2019-05-16T08:04:15.869Z,28.11
2019-05-16T08:05:15.855Z,27.61
2019-05-16T08:06:15.849Z,27.81
2019-05-16T08:07:15.835Z,27.31
2019-05-16T08:08:15.836Z,28.10
2019-05-16T08:09:16.217Z,29.10
2019-05-16T08:10:31.546Z,29.39
2019-05-16T08:11:40.980Z,29.59
2019-05-16T08:12:40.957Z,30.18
2019-05-16T08:13:40.589Z,28.88
2019-05-16T08:14:41.036Z,29.28
2019-05-16T08:15:40.803Z,29.28
2019-05-16T08:16:40.984Z,29.27
2019-05-16T08:17:44.159Z,29.27
2019-05-16T08:18:44.954Z,29.66
2019-05-16T08:19:40.526Z,29.66
2019-05-16T08:20:41.717Z,30.15
2019-05-16T08:21:41.204Z,29.96
2019-05-16T08:22:41.602Z,32.03
2019-05-16T08:23:41.178Z,30.93
2019-05-16T08:24:40.480Z,31.91
2019-05-16T08:25:41.201Z,31.32
2019-05-16T08:27:42.444Z,30.74
2019-05-16T08:28:41.588Z,29.07
2019-05-16T08:29:40.613Z,29.65
2019-05-16T08:30:41.181Z,28.94
2019-05-16T08:31:43.073Z,29.24
2019-05-16T08:32:42.027Z,29.63
2019-05-16T08:33:41.487Z,30.32
2019-05-16T08:34:41.003Z,28.84
2019-05-16T08:35:41.408Z,29.02
2019-05-16T08:36:41.077Z,28.34
2019-05-16T08:37:46.597Z,28.03
2019-05-16T08:39:05.195Z,27.34
2019-05-16T08:40:05.186Z,27.83
2019-05-16T08:42:08.426Z,28.82
2019-05-16T08:43:31.551Z,29.60
2019-05-16T08:44:32.373Z,28.72
2019-05-16T08:45:31.498Z,28.82
2019-05-16T08:46:32.402Z,30.31
2019-05-16T08:47:32.028Z,31.39
2019-05-16T08:48:31.830Z,31.50
2019-05-16T08:49:30.703Z,32.00
2019-05-16T08:50:05.526Z,28.22
2019-05-16T08:50:06.464Z,30.74
2019-05-16T08:50:34.776Z,31.90
2019-05-16T08:51:33.411Z,32.78
2019-05-16T08:52:31.539Z,33.96
2019-05-16T08:53:31.635Z,34.75
2019-05-16T08:54:31.879Z,34.55
2019-05-16T08:55:31.385Z,34.86
2019-05-16T08:56:31.680Z,34.38
2019-05-16T08:58:33.189Z,33.98
2019-05-16T08:59:33.951Z,34.17
2019-05-16T09:00:33.434Z,33.78
2019-05-16T09:01:34.962Z,34.08
2019-05-16T09:03:32.608Z,33.78
2019-05-16T09:04:34.390Z,33.77
2019-05-16T09:05:31.553Z,34.55
2019-05-16T09:06:32.039Z,33.85
2019-05-16T09:07:31.831Z,33.95
2019-05-16T09:08:29.779Z,34.93
2019-05-16T09:09:42.762Z,35.22
2019-05-16T09:10:39.201Z,33.88
2019-05-16T09:10:59.948Z,35.32
2019-05-16T09:11:44.687Z,35.32
2019-05-16T09:12:56.491Z,35.93
2019-05-16T09:13:57.237Z,37.01
2019-05-16T09:14:54.452Z,37.90
2019-05-16T09:15:56.979Z,38.00
2019-05-16T09:16:54.434Z,38.69
2019-05-16T09:17:54.424Z,38.29
2019-05-16T09:18:30.894Z,34.47
2019-05-16T09:18:56.878Z,37.81
2019-05-16T09:19:54.653Z,36.82
2019-05-16T09:20:54.394Z,37.81
2019-05-16T09:21:54.384Z,37.72
2019-05-16T09:22:57.541Z,38.53
2019-05-16T09:23:54.364Z,38.94
2019-05-16T09:24:57.419Z,39.44
2019-05-16T09:25:54.438Z,40.03
2019-05-16T09:26:54.331Z,38.94
2019-05-16T09:27:56.825Z,38.57
2019-05-16T09:28:56.884Z,38.27
2019-05-16T09:29:56.583Z,38.67
2019-05-16T09:30:54.285Z,39.55
2019-05-16T09:32:16.287Z,39.65
2019-05-16T09:33:19.079Z,40.27
2019-05-16T09:34:19.070Z,40.46
2019-05-16T09:35:19.057Z,40.27
2019-05-16T09:36:19.050Z,41.25
2019-05-16T09:37:19.241Z,40.27
2019-05-16T09:38:23.615Z,41.25
2019-05-16T09:39:19.013Z,41.17
2019-05-16T09:40:19.006Z,41.07
2019-05-16T09:41:18.993Z,40.99
2019-05-16T09:42:18.987Z,41.11
2019-05-16T09:43:19.078Z,41.02
2019-05-16T09:44:18.969Z,42.01
2019-05-16T09:45:18.952Z,41.93
2019-05-16T09:46:18.944Z,42.02
2019-05-16T09:47:18.929Z,42.71
2019-05-16T09:48:19.209Z,42.22
2019-05-16T09:49:24.206Z,42.02
2019-05-16T09:50:43.714Z,42.02
2019-05-16T09:51:43.722Z,41.33
2019-05-16T09:52:43.696Z,41.72
2019-05-16T09:53:43.680Z,41.33
2019-05-16T09:54:43.825Z,39.95
2019-05-16T09:55:43.661Z,40.05
2019-05-16T09:56:43.651Z,40.44
2019-05-16T09:57:43.638Z,40.24
2019-05-16T09:58:43.627Z,41.23
2019-05-16T09:59:43.616Z,41.63
2019-05-16T10:00:43.658Z,41.43
2019-05-16T10:01:43.598Z,41.43
2019-05-16T10:02:43.591Z,41.72
2019-05-16T10:03:43.576Z,41.63
2019-05-16T10:04:43.568Z,41.33
2019-05-16T10:05:43.556Z,41.43
2019-05-16T10:06:43.594Z,41.25
2019-05-16T10:07:43.537Z,41.75
2019-05-16T10:08:43.524Z,42.06
2019-05-16T10:09:46.989Z,41.67
2019-05-16T10:11:08.316Z,41.94
2019-05-16T10:12:15.190Z,41.65
2019-05-16T10:13:33.111Z,41.94
2019-05-16T10:14:33.099Z,41.65
2019-05-16T10:15:33.091Z,40.66
2019-05-16T10:16:33.083Z,40.64
2019-05-16T10:17:33.171Z,41.72
2019-05-16T10:18:33.057Z,41.63
2019-05-16T10:19:33.052Z,40.94
2019-05-16T10:20:33.039Z,41.05
2019-05-16T10:21:33.029Z,41.53
2019-05-16T10:22:33.067Z,41.55
2019-05-16T10:23:33.011Z,41.55
2019-05-16T10:24:32.997Z,41.25
2019-05-16T10:25:32.992Z,41.35
2019-05-16T10:26:32.981Z,41.94
2019-05-16T10:27:32.966Z,41.55
2019-05-16T10:28:33.356Z,41.43
2019-05-16T10:29:32.948Z,41.33
2019-05-16T10:30:32.941Z,41.82
2019-05-16T10:31:45.031Z,42.02
2019-05-16T10:33:00.404Z,41.33
2019-05-16T10:33:58.611Z,41.23
2019-05-16T10:34:57.707Z,41.31
2019-05-16T10:35:58.151Z,41.33
2019-05-16T10:36:57.755Z,41.93
2019-05-16T10:37:57.734Z,41.61
2019-05-16T10:38:59.103Z,41.33
2019-05-16T10:39:59.932Z,41.72
2019-05-16T10:40:57.651Z,41.72
2019-05-16T10:41:57.635Z,42.10
2019-05-16T10:42:58.010Z,42.30
2019-05-16T10:43:57.621Z,40.91
2019-05-16T10:44:57.861Z,40.91
2019-05-16T10:45:57.999Z,41.21
2019-05-16T10:46:57.591Z,41.51
2019-05-16T10:47:57.576Z,41.43
2019-05-16T10:48:57.866Z,41.43
2019-05-16T10:49:57.551Z,42.12
2019-05-16T10:50:57.903Z,41.72
2019-05-16T10:51:57.810Z,42.34
2019-05-16T10:53:22.588Z,41.15
2019-05-16T10:54:09.150Z,41.87
2019-05-16T10:55:22.434Z,41.77
2019-05-16T10:56:22.305Z,41.77
2019-05-16T10:57:22.464Z,41.77
2019-05-16T10:58:35.654Z,41.37
2019-05-16T11:00:01.848Z,41.57
2019-05-16T11:01:11.366Z,42.06
2019-05-16T11:02:11.910Z,41.45
2019-05-16T11:03:11.922Z,41.65
2019-05-16T11:04:24.229Z,41.55
2019-05-16T11:05:25.921Z,41.94
2019-05-16T11:06:37.215Z,41.67
2019-05-16T11:07:37.205Z,41.57
2019-05-16T11:08:39.443Z,41.49
2019-05-16T11:09:39.095Z,41.29
2019-05-16T11:10:37.282Z,42.08
2019-05-16T11:11:36.894Z,42.40
2019-05-16T11:12:47.412Z,42.01
2019-05-16T11:14:01.437Z,42.60
2019-05-16T11:15:01.391Z,42.60
2019-05-16T11:16:01.368Z,42.77
2019-05-16T11:17:01.360Z,43.09
2019-05-16T11:18:01.345Z,43.07
2019-05-16T11:19:14.295Z,42.98
2019-05-16T11:20:26.976Z,43.37
2019-05-16T11:21:26.815Z,42.98
2019-05-16T11:22:29.570Z,43.17
2019-05-16T11:23:30.879Z,43.28
2019-05-16T11:24:28.982Z,42.88
2019-05-16T11:25:31.822Z,43.07
2019-05-16T11:26:50.938Z,42.58
2019-05-16T11:27:50.925Z,41.79
2019-05-16T11:28:50.917Z,41.88
2019-05-16T11:29:50.911Z,41.59
2019-05-16T11:30:51.097Z,42.28
2019-05-16T11:31:50.886Z,41.59
2019-05-16T11:32:50.884Z,42.08
2019-05-16T11:33:50.873Z,42.48
2019-05-16T11:34:50.855Z,42.08
2019-05-16T11:35:50.853Z,41.91
2019-05-16T11:36:50.986Z,41.99
2019-05-16T11:37:50.826Z,42.08
2019-05-16T11:38:50.816Z,42.68
2019-05-16T11:39:50.810Z,42.77
2019-05-16T11:40:50.797Z,42.77
2019-05-16T11:41:50.787Z,43.77
2019-05-16T11:43:05.469Z,43.28
2019-05-16T11:44:17.576Z,43.37
2019-05-16T11:45:16.529Z,43.57
2019-05-16T11:46:15.561Z,42.18
2019-05-16T11:47:16.613Z,43.28
2019-05-16T11:48:17.093Z,43.20
2019-05-16T11:49:16.623Z,43.09
2019-05-16T11:50:17.632Z,43.39
2019-05-16T11:51:17.500Z,43.91
2019-05-16T11:52:17.842Z,43.61
2019-05-16T11:53:17.463Z,44.21
2019-05-16T11:54:15.528Z,44.40
2019-05-16T11:55:15.472Z,44.11
2019-05-16T11:56:15.456Z,44.60
2019-05-16T11:57:17.740Z,44.48
2019-05-16T11:58:17.937Z,44.68
2019-05-16T11:59:15.426Z,43.69
2019-05-16T12:00:17.944Z,43.49
2019-05-16T12:01:16.518Z,44.18
2019-05-16T12:02:17.495Z,43.51
2019-05-16T12:03:17.088Z,43.12
2019-05-16T12:04:17.435Z,43.61
2019-05-16T12:05:17.193Z,43.31
2019-05-16T12:06:17.145Z,43.21
2019-05-16T12:07:19.064Z,43.81
2019-05-16T12:08:17.466Z,43.42
2019-05-16T12:09:17.698Z,43.61
2019-05-16T12:10:16.422Z,43.21
2019-05-16T12:11:17.657Z,44.11
2019-05-16T12:12:16.520Z,43.91
2019-05-16T12:13:25.247Z,43.73
2019-05-16T12:14:40.086Z,43.93
2019-05-16T12:15:40.082Z,43.71
2019-05-16T12:16:40.075Z,44.03
2019-05-16T12:17:40.209Z,43.73
2019-05-16T12:18:40.050Z,44.32
2019-05-16T12:19:44.056Z,44.72
2019-05-16T12:20:40.029Z,44.23
2019-05-16T12:21:40.018Z,43.83
2019-05-16T12:22:40.020Z,43.83
2019-05-16T12:23:40.125Z,43.93
2019-05-16T12:24:41.554Z,44.23
2019-05-16T12:25:39.971Z,44.53
2019-05-16T12:26:40.001Z,44.62
2019-05-16T12:27:42.314Z,44.43
2019-05-16T12:28:39.948Z,44.23
2019-05-16T12:29:39.982Z,44.72
2019-05-16T12:30:40.411Z,44.32
2019-05-16T12:31:54.234Z,44.72
2019-05-16T12:33:07.116Z,44.54
2019-05-16T12:34:08.982Z,44.25
2019-05-16T12:35:06.445Z,44.84
2019-05-16T12:36:07.089Z,44.65
2019-05-16T12:37:07.205Z,44.15
2019-05-16T12:38:07.794Z,44.45
2019-05-16T12:39:04.654Z,44.25
2019-05-16T12:40:04.642Z,44.57
2019-05-16T12:41:06.996Z,45.76
2019-05-16T12:42:08.141Z,45.66
2019-05-16T12:43:07.535Z,45.86
2019-05-16T12:44:07.418Z,45.36
2019-05-16T12:45:06.875Z,45.05
2019-05-16T12:46:07.182Z,45.64
2019-05-16T12:47:04.618Z,45.34
2019-05-16T12:48:06.784Z,45.36
2019-05-16T12:49:06.869Z,45.14
2019-05-16T12:50:04.537Z,45.73
2019-05-16T12:51:07.903Z,45.64
2019-05-16T12:52:06.589Z,45.64
2019-05-16T12:53:07.763Z,45.34
2019-05-16T12:54:04.494Z,45.34
2019-05-16T12:55:04.485Z,45.73
2019-05-16T12:56:04.480Z,45.64
2019-05-16T12:57:04.465Z,45.14
2019-05-16T12:58:12.849Z,45.05
2019-05-16T12:59:29.363Z,45.34
2019-05-16T13:00:29.348Z,45.05
2019-05-16T13:01:34.049Z,44.15
2019-05-16T13:02:29.322Z,44.76
2019-05-16T13:03:29.315Z,44.47
2019-05-16T13:04:29.352Z,43.57